Time;durP1;ratioP1;P1;durP2;ratioP2;P2;SDS_P1;SDS_P2;PMS_P1;PMS_P2;Temp;Humidity;BMP_temperature;BMP_pressure;BME280_temperature;BME280_humidity;BME280_pressure;Samples;Min_cycle;Max_cycle;Signal;HPM_P1;HPM_P2
2022/01/24 00:01:03;;;;;;;15.77;9.77;;;22.10;37.30;;;;;;6062297;28;83808;-69
2022/01/24 00:04:03;;;;;;;21.58;10.82;;;22.10;37.00;;;;;;6065690;28;82787;-69
2022/01/24 00:07:05;;;;;;;20.40;11.77;;;22.10;37.10;;;;;;6062087;28;83116;-69
2022/01/24 00:10:10;;;;;;;17.73;10.60;;;22.10;37.10;;;;;;6059320;28;83100;-69
2022/01/24 00:13:55;;;;;;;17.97;11.00;;;22.10;36.80;;;;;;6058921;28;85870;-67
2022/01/24 00:26:46;;;;;;;19.50;10.32;;;22.10;36.90;;;;;;6056920;28;83485;-68
2022/01/24 00:29:46;;;;;;;17.98;10.57;;;22.10;36.70;;;;;;6061347;28;83276;-68
2022/01/24 00:32:47;;;;;;;19.23;10.77;;;22.10;36.40;;;;;;6050074;28;83158;-67
2022/01/24 00:35:47;;;;;;;17.98;10.63;;;22.10;36.20;;;;;;6060240;28;83297;-67
2022/01/24 00:38:48;;;;;;;20.92;10.85;;;22.10;36.80;;;;;;6059759;28;84467;-67
2022/01/24 00:48:31;;;;;;;;;;;22.10;35.90;;;;;;6037921;28;83933;-67
2022/01/24 00:54:54;;;;;;;21.30;12.00;;;22.10;35.90;;;;;;6056280;28;83259;-68
2022/01/24 00:57:55;;;;;;;19.98;10.93;;;22.10;35.70;;;;;;6044111;28;83271;-68
2022/01/24 01:00:55;;;;;;;21.30;12.35;;;22.10;35.60;;;;;;6061233;28;83311;-68
2022/01/24 01:03:56;;;;;;;20.30;11.20;;;22.10;35.80;;;;;;6057001;28;83340;-68
2022/01/24 01:07:03;;;;;;;20.88;10.70;;;22.10;35.70;;;;;;6060456;28;83008;-68
2022/01/24 01:20:02;;;;;;;25.33;12.40;;;22.00;35.40;;;;;;6062586;28;85328;-68
2022/01/24 01:23:02;;;;;;;22.05;12.27;;;22.00;35.40;;;;;;6044346;28;83240;-68
2022/01/24 01:26:07;;;;;;;22.20;12.38;;;22.00;35.30;;;;;;6061158;28;83227;-68
2022/01/24 01:29:14;;;;;;;21.23;12.25;;;22.00;35.30;;;;;;6052122;28;83414;-69
2022/01/24 01:55:07;;;;;;;23.85;13.57;;;22.00;34.80;;;;;;6054604;28;84026;-69
2022/01/24 01:58:08;;;;;;;24.10;12.55;;;22.00;34.60;;;;;;6075067;28;87565;-69
2022/01/24 02:01:08;;;;;;;20.85;11.80;;;21.90;35.20;;;;;;6059774;28;83023;-68
2022/01/24 02:04:09;;;;;;;22.45;11.95;;;22.00;34.80;;;;;;6059838;28;85317;-69
2022/01/24 02:07:09;;;;;;;24.75;13.27;;;21.90;35.00;;;;;;6060031;28;82977;-69
2022/01/24 02:10:10;;;;;;;23.40;12.70;;;21.90;34.60;;;;;;6060744;28;83712;-70
2022/01/24 02:13:11;;;;;;;20.90;12.05;;;21.90;34.70;;;;;;6059576;28;84481;-69
2022/01/24 02:16:21;;;;;;;23.63;12.82;;;21.90;34.40;;;;;;6059859;28;82934;-69
2022/01/24 02:25:29;;;;;;;25.23;13.48;;;21.90;34.90;;;;;;6059179;28;84903;-68
2022/01/24 02:28:42;;;;;;;23.38;13.80;;;21.90;34.50;;;;;;6061725;28;83769;-67
2022/01/24 02:31:48;;;;;;;20.77;12.68;;;21.90;34.20;;;;;;6051601;28;85603;-67
2022/01/24 02:34:50;;;;;;;21.15;12.27;;;21.90;34.60;;;;;;6059288;28;83032;-67
2022/01/24 02:37:50;;;;;;;21.65;12.25;;;21.90;34.10;;;;;;6061288;28;84362;-67
2022/01/24 02:53:51;;;;;;;25.17;12.60;;;21.90;34.30;;;;;;6061858;28;83000;-68
2022/01/24 02:56:51;;;;;;;21.17;12.82;;;21.90;34.00;;;;;;6066395;28;83176;-68
2022/01/24 02:59:52;;;;;;;21.48;12.27;;;21.90;34.00;;;;;;6063107;28;83031;-68
2022/01/24 03:02:52;;;;;;;22.67;12.15;;;21.80;33.90;;;;;;6064806;28;83143;-68
2022/01/24 03:05:53;;;;;;;24.13;13.20;;;21.80;33.60;;;;;;6065183;28;83185;-68
2022/01/24 03:08:53;;;;;;;23.55;13.35;;;21.80;33.80;;;;;;6066301;28;83439;-68
2022/01/24 03:14:54;;;;;;;20.05;12.40;;;21.90;33.60;;;;;;6065026;28;83019;-68
2022/01/24 03:17:55;;;;;;;24.85;13.48;;;21.90;34.40;;;;;;6063795;28;83581;-68
2022/01/24 03:20:55;;;;;;;23.25;13.02;;;21.90;33.40;;;;;;6053808;28;83035;-67
2022/01/24 03:23:56;;;;;;;24.20;13.85;;;21.90;33.30;;;;;;6050971;28;83985;-66
2022/01/24 03:26:56;;;;;;;24.13;14.05;;;22.00;32.30;;;;;;6055521;28;83289;-67
2022/01/24 03:29:57;;;;;;;25.88;13.52;;;22.00;31.80;;;;;;6052072;28;82985;-67
2022/01/24 03:32:57;;;;;;;24.92;13.98;;;22.10;31.80;;;;;;6056928;28;83593;-67
2022/01/24 03:35:58;;;;;;;25.33;13.75;;;22.10;31.50;;;;;;6056366;28;82629;-67
2022/01/24 03:38:58;;;;;;;21.42;13.05;;;22.20;31.30;;;;;;6064296;28;82952;-67
2022/01/24 03:41:58;;;;;;;25.08;14.27;;;22.20;31.20;;;;;;6059429;28;83429;-67
2022/01/24 03:45:03;;;;;;;23.80;13.45;;;22.20;31.10;;;;;;6049643;28;83066;-68
2022/01/24 03:48:48;;;;;;;23.63;14.43;;;22.20;31.10;;;;;;6063671;28;82955;-67
2022/01/24 03:51:27;;;;;;;21.13;13.05;;;22.30;30.90;;;;;;6038089;28;83690;-67
2022/01/24 03:54:28;;;;;;;23.27;13.35;;;22.30;31.00;;;;;;6059950;28;83510;-67
2022/01/24 03:57:28;;;;;;;20.92;13.18;;;22.30;31.10;;;;;;6056355;28;82939;-67
2022/01/24 04:00:29;;;;;;;23.98;12.85;;;22.40;30.80;;;;;;6056859;28;83096;-67
2022/01/24 04:03:29;;;;;;;23.63;14.00;;;22.30;31.10;;;;;;6055319;28;83011;-68
2022/01/24 04:06:30;;;;;;;23.55;14.05;;;22.40;30.60;;;;;;6060711;28;83532;-68
2022/01/24 04:09:30;;;;;;;29.08;14.45;;;22.40;30.50;;;;;;6063554;28;83032;-68
2022/01/24 04:12:31;;;;;;;23.25;13.55;;;22.40;30.50;;;;;;6039909;28;82861;-68
2022/01/24 04:21:58;;;;;;;27.13;15.27;;;22.40;30.00;;;;;;6061679;28;87897;-68
2022/01/24 04:25:01;;;;;;;28.27;14.63;;;22.40;29.90;;;;;;6062620;28;88739;-68
2022/01/24 04:28:02;;;;;;;25.05;14.90;;;22.50;29.90;;;;;;6064195;28;83413;-68
2022/01/24 04:31:02;;;;;;;30.33;15.85;;;22.50;29.80;;;;;;6063111;28;83086;-68
2022/01/24 04:34:03;;;;;;;26.30;14.93;;;22.50;29.80;;;;;;6061178;28;83173;-69
2022/01/24 04:37:03;;;;;;;28.52;15.93;;;22.50;29.70;;;;;;6044742;28;83130;-68
2022/01/24 04:40:04;;;;;;;30.27;16.65;;;22.60;30.00;;;;;;6061722;28;82917;-68
2022/01/24 04:43:27;;;;;;;28.13;15.93;;;22.60;29.50;;;;;;6059809;28;83094;-67
2022/01/24 04:46:51;;;;;;;32.33;17.17;;;22.60;29.60;;;;;;6059608;28;84518;-65
2022/01/24 04:53:45;;;;;;;32.20;18.38;;;22.60;29.50;;;;;;6059637;28;83895;-66
2022/01/24 04:56:38;;;;;;;29.95;17.45;;;22.60;29.50;;;;;;6061963;28;83108;-66
2022/01/24 04:59:39;;;;;;;29.17;17.30;;;22.60;29.70;;;;;;6060516;28;84629;-67
2022/01/24 05:02:39;;;;;;;30.25;16.70;;;22.60;29.70;;;;;;6056759;28;83497;-64
2022/01/24 05:05:41;;;;;;;32.10;17.23;;;22.60;29.80;;;;;;6049596;28;83399;-66
2022/01/24 05:08:42;;;;;;;35.20;18.30;;;22.60;29.60;;;;;;6060383;28;84046;-67
2022/01/24 05:12:01;;;;;;;30.95;15.85;;;22.60;29.50;;;;;;6043467;28;83340;-66
2022/01/24 05:25:07;;;;;;;31.20;16.65;;;22.60;29.40;;;;;;6047151;28;84258;-65
2022/01/24 05:28:07;;;;;;;26.40;15.02;;;22.60;29.70;;;;;;6051732;28;84501;-65
2022/01/24 05:31:08;;;;;;;26.33;15.70;;;22.60;29.60;;;;;;6045484;28;87467;-66
2022/01/24 05:34:08;;;;;;;32.67;16.48;;;22.60;29.50;;;;;;6048072;28;83531;-66
2022/01/24 05:37:09;;;;;;;27.88;15.77;;;22.60;29.50;;;;;;6050360;28;83946;-69
2022/01/24 05:40:09;;;;;;;28.27;15.18;;;22.60;29.60;;;;;;6050669;28;84660;-66
2022/01/24 05:43:10;;;;;;;25.70;14.50;;;22.60;30.00;;;;;;6051054;28;83718;-67
2022/01/24 05:46:10;;;;;;;23.70;14.52;;;22.70;30.00;;;;;;6052565;28;83051;-66
2022/01/24 05:49:11;;;;;;;28.58;14.05;;;22.70;30.10;;;;;;6048985;28;83963;-68
2022/01/24 05:52:12;;;;;;;24.60;15.18;;;22.70;30.40;;;;;;6050733;28;82972;-68
2022/01/24 05:55:16;;;;;;;29.58;15.57;;;22.70;30.50;;;;;;6054193;28;83218;-69
2022/01/24 05:58:19;;;;;;;28.58;14.68;;;22.70;30.20;;;;;;6058217;28;83149;-68
2022/01/24 06:01:25;;;;;;;21.70;13.10;;;22.70;31.20;;;;;;6059899;28;83027;-71
2022/01/24 06:08:12;;;;;;;221.07;103.65;;;22.60;33.30;;;;;;6054549;28;89382;-71
2022/01/24 06:11:12;;;;;;;223.25;102.95;;;22.60;34.00;;;;;;6054531;28;85369;-72
2022/01/24 06:14:13;;;;;;;229.48;103.90;;;22.60;34.70;;;;;;6057255;28;86637;-70
2022/01/24 06:17:15;;;;;;;292.67;136.77;;;22.60;35.40;;;;;;6054333;28;85504;-66
2022/01/24 06:20:15;;;;;;;303.60;141.45;;;22.50;36.50;;;;;;6055745;28;85651;-70
2022/01/24 06:23:16;;;;;;;335.88;147.73;;;22.50;36.90;;;;;;6039064;28;85695;-68
2022/01/24 06:26:16;;;;;;;240.00;111.20;;;22.40;38.20;;;;;;6053731;28;88084;-69
2022/01/24 06:29:18;;;;;;;188.43;85.55;;;22.30;38.10;;;;;;6042677;28;85691;-68
2022/01/24 06:32:21;;;;;;;137.90;66.28;;;22.30;38.50;;;;;;6056781;28;84772;-68
2022/01/24 06:35:22;;;;;;;127.97;55.10;;;22.30;39.00;;;;;;6046554;28;85303;-66
2022/01/24 06:38:22;;;;;;;90.32;42.20;;;22.30;39.20;;;;;;6058304;28;83404;-66
2022/01/24 06:41:29;;;;;;;75.30;34.55;;;22.30;39.00;;;;;;6060712;28;83274;-66
2022/01/24 06:51:45;;;;;;;47.63;22.55;;;22.20;40.50;;;;;;6026601;28;83953;-67
2022/01/24 06:54:46;;;;;;;44.80;21.15;;;22.20;40.50;;;;;;6041287;28;84703;-67
2022/01/24 06:57:46;;;;;;;59.78;26.95;;;22.20;40.80;;;;;;6051254;28;83828;-67
2022/01/24 07:00:47;;;;;;;49.10;21.58;;;22.20;39.70;;;;;;6057680;28;82910;-67
2022/01/24 07:03:47;;;;;;;46.60;23.63;;;22.20;38.50;;;;;;6045040;28;84187;-66
2022/01/24 07:06:48;;;;;;;48.15;21.33;;;22.20;38.60;;;;;;6051527;28;83046;-66
2022/01/24 07:09:48;;;;;;;42.53;19.27;;;22.20;38.20;;;;;;6048662;28;85770;-66
2022/01/24 07:12:49;;;;;;;35.30;19.58;;;22.20;38.10;;;;;;6051564;28;83084;-71
2022/01/24 07:15:54;;;;;;;39.40;18.85;;;22.20;37.90;;;;;;6047051;28;83725;-68
2022/01/24 07:18:58;;;;;;;40.95;19.60;;;22.20;37.40;;;;;;6052058;28;83487;-66
2022/01/24 07:21:58;;;;;;;35.08;18.35;;;22.30;37.40;;;;;;6054460;28;89417;-68
2022/01/24 07:25:02;;;;;;;37.22;18.95;;;22.30;37.00;;;;;;6055504;28;84251;-67
2022/01/24 07:43:32;;;;;;;38.80;21.13;;;22.40;36.40;;;;;;5909777;29;88133;-66
2022/01/24 07:46:34;;;;;;;37.13;20.70;;;22.40;36.20;;;;;;5905933;29;83656;-66
2022/01/24 07:49:35;;;;;;;33.05;19.98;;;22.40;36.40;;;;;;5997207;28;83517;-67
2022/01/24 07:52:35;;;;;;;34.25;19.45;;;22.50;36.40;;;;;;6062033;28;83056;-68
2022/01/24 07:55:36;;;;;;;38.50;20.13;;;22.50;36.50;;;;;;6063879;28;83651;-70
2022/01/24 07:58:37;;;;;;;37.83;18.52;;;22.50;36.50;;;;;;6051225;28;83468;-67
2022/01/24 08:01:41;;;;;;;34.58;19.00;;;22.50;36.50;;;;;;6064774;28;83575;-68
2022/01/24 08:04:42;;;;;;;30.63;19.10;;;22.50;36.80;;;;;;6063033;28;83648;-67
2022/01/24 08:07:42;;;;;;;33.53;18.27;;;22.60;37.00;;;;;;6044656;28;86162;-67
2022/01/24 08:10:43;;;;;;;31.60;17.70;;;22.60;36.70;;;;;;6062507;28;83003;-67
2022/01/24 08:13:43;;;;;;;31.17;17.60;;;22.60;37.00;;;;;;6051454;28;83094;-68
2022/01/24 08:16:47;;;;;;;32.90;17.65;;;22.70;36.90;;;;;;6042619;28;83026;-64
2022/01/24 08:20:00;;;;;;;34.15;18.48;;;22.70;37.00;;;;;;6059587;28;83328;-67
2022/01/24 08:27:15;;;;;;;28.58;15.95;;;22.70;36.70;;;;;;5970556;28;83168;-68
2022/01/24 08:30:19;;;;;;;29.08;16.92;;;22.80;36.80;;;;;;6054330;28;83620;-66
2022/01/24 08:33:19;;;;;;;29.70;16.35;;;22.80;37.00;;;;;;6052790;28;83097;-66
2022/01/24 08:36:28;;;;;;;28.17;15.43;;;22.80;36.70;;;;;;6057010;28;83277;-66
2022/01/24 08:39:31;;;;;;;26.17;14.93;;;22.80;37.10;;;;;;6051176;28;86237;-64
2022/01/24 08:42:45;;;;;;;29.25;16.20;;;22.90;37.00;;;;;;6050370;28;83554;-65
2022/01/24 08:45:50;;;;;;;26.70;15.40;;;22.90;36.80;;;;;;6045317;28;85452;-68
2022/01/24 08:48:51;;;;;;;29.00;17.35;;;22.90;36.60;;;;;;6056257;28;83240;-67
2022/01/24 08:51:51;;;;;;;28.52;16.23;;;23.00;36.50;;;;;;6050174;28;83301;-66
2022/01/24 08:54:55;;;;;;;30.90;18.20;;;23.00;36.20;;;;;;6042163;28;83517;-65
2022/01/24 08:57:55;;;;;;;32.83;16.88;;;23.00;35.90;;;;;;6066351;28;83547;-65
2022/01/24 09:00:56;;;;;;;28.73;17.42;;;23.00;35.60;;;;;;6059572;28;83413;-65
2022/01/24 09:03:56;;;;;;;30.73;17.45;;;23.10;36.20;;;;;;6059633;28;84232;-66
2022/01/24 09:07:00;;;;;;;33.15;17.38;;;23.10;35.70;;;;;;6030233;28;89697;-67
2022/01/24 09:10:00;;;;;;;28.88;17.80;;;23.20;35.50;;;;;;6059540;28;83507;-68
2022/01/24 09:13:01;;;;;;;33.88;17.27;;;23.20;35.30;;;;;;6058539;28;83410;-67
2022/01/24 09:16:02;;;;;;;47.17;20.83;;;23.20;35.90;;;;;;6058928;28;83000;-67
2022/01/24 09:19:02;;;;;;;66.00;25.35;;;23.30;36.60;;;;;;6048824;28;83327;-65
2022/01/24 09:22:03;;;;;;;69.45;27.50;;;23.40;37.30;;;;;;6055582;28;82824;-68
2022/01/24 09:25:03;;;;;;;63.15;24.60;;;23.40;37.30;;;;;;6051583;28;83122;-67
2022/01/24 09:28:04;;;;;;;63.08;25.15;;;23.50;38.00;;;;;;6050964;28;84138;-65
2022/01/24 09:31:05;;;;;;;52.00;21.73;;;23.60;37.90;;;;;;6038487;28;83500;-66
2022/01/24 09:34:05;;;;;;;52.00;23.38;;;23.60;37.80;;;;;;6045620;28;84825;-67
2022/01/24 09:37:06;;;;;;;58.88;22.63;;;23.60;37.30;;;;;;6056132;28;83152;-66
2022/01/24 09:40:13;;;;;;;43.95;22.35;;;23.70;37.40;;;;;;6049786;28;90718;-66
2022/01/24 09:43:45;;;;;;;;;;;;;;;;;;;;;
2022/01/24 10:24:41;;;;;;;35.08;17.60;;;24.60;37.10;;;;;;5722265;30;82915;-66
2022/01/24 10:27:42;;;;;;;29.10;16.55;;;24.60;37.20;;;;;;5798163;30;83061;-65
2022/01/24 10:30:43;;;;;;;32.35;15.43;;;24.70;37.10;;;;;;5913332;29;83688;-68
2022/01/24 10:33:43;;;;;;;29.25;15.80;;;24.70;36.70;;;;;;6061501;28;84193;-67
2022/01/24 10:36:44;;;;;;;30.70;16.45;;;24.80;36.70;;;;;;6067420;28;83442;-67
2022/01/24 10:39:55;;;;;;;31.75;16.23;;;24.90;36.60;;;;;;6047775;28;83723;-67
2022/01/24 10:42:59;;;;;;;31.10;16.08;;;24.90;36.40;;;;;;6043446;28;83057;-67
2022/01/24 10:45:59;;;;;;;33.38;16.15;;;25.00;36.40;;;;;;6058770;28;90535;-68
2022/01/24 10:49:00;;;;;;;26.55;14.48;;;25.00;36.20;;;;;;6058930;28;84853;-67
2022/01/24 10:52:00;;;;;;;28.23;15.30;;;25.10;36.40;;;;;;6049362;28;84322;-66
2022/01/24 10:55:01;;;;;;;31.08;15.80;;;25.10;36.30;;;;;;6054484;28;83448;-66
2022/01/24 10:58:01;;;;;;;26.88;15.23;;;25.20;36.30;;;;;;6057972;28;83041;-67
2022/01/24 11:01:02;;;;;;;25.75;14.50;;;25.30;36.10;;;;;;6058001;28;84066;-67
2022/01/24 11:04:02;;;;;;;27.65;14.60;;;25.30;35.80;;;;;;6053379;28;83764;-66
2022/01/24 11:07:03;;;;;;;21.60;13.80;;;25.30;36.10;;;;;;6049109;28;83330;-68
2022/01/24 11:10:03;;;;;;;23.40;14.38;;;25.40;36.10;;;;;;6055528;28;87861;-67
2022/01/24 11:13:05;;;;;;;23.40;14.07;;;25.50;35.90;;;;;;6033680;28;82887;-68
2022/01/24 11:16:06;;;;;;;21.65;13.25;;;25.50;36.00;;;;;;6056907;28;84105;-68
2022/01/24 12:37:44;;;;;;;15.73;10.30;;;25.70;40.80;;;;;;6055729;28;87671;-65
2022/01/24 12:40:45;;;;;;;17.67;11.25;;;25.70;40.40;;;;;;6061132;28;83198;-66
2022/01/24 12:46:58;;;;;;;17.58;10.45;;;25.70;40.20;;;;;;6064633;28;82925;-63
2022/01/24 12:49:58;;;;;;;21.30;11.77;;;25.70;40.40;;;;;;6060223;28;83671;-64
2022/01/24 12:52:59;;;;;;;17.13;10.65;;;25.70;40.00;;;;;;6061378;28;84089;-63
2022/01/24 12:55:59;;;;;;;20.05;11.77;;;25.70;40.00;;;;;;6064740;28;83211;-64
2022/01/24 12:59:00;;;;;;;18.50;11.45;;;25.70;39.80;;;;;;6056679;28;83544;-64
2022/01/24 13:02:03;;;;;;;18.65;11.32;;;25.70;39.80;;;;;;6061255;28;84220;-64
2022/01/24 13:05:03;;;;;;;19.13;12.32;;;25.90;39.90;;;;;;6051593;28;83418;-65
2022/01/24 13:08:04;;;;;;;19.35;12.82;;;26.30;39.80;;;;;;6042795;28;84093;-65
2022/01/24 13:11:05;;;;;;;18.45;12.23;;;26.70;39.00;;;;;;6059377;28;84432;-64
2022/01/24 13:14:13;;;;;;;17.15;11.55;;;27.00;38.50;;;;;;6053916;28;84355;-63
2022/01/24 13:23:53;;;;;;;21.15;12.88;;;27.40;37.90;;;;;;6056975;28;83395;-64
2022/01/24 13:26:54;;;;;;;20.10;12.40;;;27.40;38.20;;;;;;6055349;28;83167;-64
2022/01/24 13:29:54;;;;;;;17.20;11.13;;;27.40;37.50;;;;;;6057112;28;83267;-64
2022/01/24 13:32:55;;;;;;;20.98;13.65;;;27.30;37.70;;;;;;6063011;28;82731;-65
2022/01/24 13:35:56;;;;;;;28.30;12.60;;;27.20;37.10;;;;;;6061122;28;83061;-66
2022/01/24 13:38:56;;;;;;;23.50;14.30;;;26.90;37.50;;;;;;6062672;28;84509;-64
2022/01/24 13:41:57;;;;;;;22.25;13.38;;;26.70;37.70;;;;;;6062793;28;84235;-64
2022/01/24 13:44:57;;;;;;;24.17;13.75;;;26.60;37.60;;;;;;6055086;28;84081;-64
2022/01/24 13:47:58;;;;;;;19.98;13.05;;;26.70;38.40;;;;;;6060133;28;85663;-63
2022/01/24 13:50:58;;;;;;;20.30;11.93;;;26.80;38.30;;;;;;6060219;28;84629;-63
2022/01/24 13:54:00;;;;;;;18.38;11.98;;;26.70;38.20;;;;;;6056426;28;83047;-64
2022/01/24 13:57:02;;;;;;;21.55;12.45;;;26.50;38.20;;;;;;6047013;28;83094;-64
2022/01/24 14:00:03;;;;;;;19.55;12.65;;;26.50;38.20;;;;;;6060462;28;83734;-65
2022/01/24 14:03:12;;;;;;;18.20;11.55;;;26.40;38.00;;;;;;6063655;28;83658;-64
2022/01/24 14:06:13;;;;;;;19.15;12.32;;;26.20;38.40;;;;;;6067900;28;82879;-64
2022/01/24 14:09:15;;;;;;;20.13;12.38;;;26.10;37.70;;;;;;6060914;28;83041;-65
2022/01/24 14:12:16;;;;;;;17.92;11.07;;;26.00;37.80;;;;;;6060432;28;83011;-65
2022/01/24 14:15:19;;;;;;;19.27;10.95;;;26.10;37.80;;;;;;6059423;28;83342;-64
2022/01/24 14:18:29;;;;;;;19.73;11.55;;;26.10;37.70;;;;;;6058526;28;83103;-63
2022/01/24 14:21:29;;;;;;;17.73;10.85;;;26.10;37.60;;;;;;6062326;28;83830;-63
2022/01/24 14:24:30;;;;;;;15.18;9.80;;;26.00;37.80;;;;;;6062497;28;83582;-63
2022/01/24 14:27:30;;;;;;;13.38;9.52;;;25.90;38.20;;;;;;6062392;28;84071;-63
2022/01/24 14:30:32;;;;;;;16.48;10.27;;;25.80;38.50;;;;;;6060990;28;81363;-64
2022/01/24 14:33:34;;;;;;;12.68;8.48;;;25.60;38.60;;;;;;6065240;28;83238;-63
2022/01/24 14:36:34;;;;;;;13.98;9.57;;;25.40;39.20;;;;;;6062110;28;81800;-64
2022/01/24 14:39:36;;;;;;;14.07;9.25;;;25.20;39.30;;;;;;6058893;28;80476;-63
2022/01/24 14:42:46;;;;;;;13.30;8.68;;;25.00;39.70;;;;;;6052358;28;81841;-63
2022/01/24 14:45:46;;;;;;;17.88;9.88;;;24.80;40.00;;;;;;6059366;28;81503;-64
2022/01/24 14:48:47;;;;;;;15.32;9.50;;;24.70;40.10;;;;;;6061646;28;80918;-63
2022/01/24 14:51:47;;;;;;;15.02;8.80;;;24.60;40.30;;;;;;6067431;28;81435;-64
2022/01/24 14:54:48;;;;;;;15.43;8.98;;;24.50;40.40;;;;;;6067723;28;80383;-63
2022/01/24 14:57:48;;;;;;;13.85;8.55;;;24.40;40.60;;;;;;6069154;28;80336;-64
2022/01/24 15:00:49;;;;;;;13.13;9.25;;;24.40;40.50;;;;;;6066929;28;81076;-65
2022/01/24 15:03:50;;;;;;;13.18;8.48;;;24.20;40.90;;;;;;6065208;28;81182;-64
2022/01/24 15:06:51;;;;;;;14.05;8.75;;;24.10;40.90;;;;;;6063243;28;84881;-67
2022/01/24 15:09:52;;;;;;;14.80;8.73;;;24.10;40.90;;;;;;6080005;28;80362;-66
2022/01/24 15:12:55;;;;;;;13.35;7.28;;;24.00;41.20;;;;;;6054679;28;80813;-65
2022/01/24 15:16:03;;;;;;;18.73;10.45;;;23.90;41.10;;;;;;6073486;28;80940;-68
2022/01/24 15:25:56;;;;;;;148.88;73.07;;;23.70;41.80;;;;;;6008501;28;86482;-68
2022/01/24 15:28:56;;;;;;;194.38;89.28;;;23.70;42.10;;;;;;6063081;28;86141;-66
2022/01/24 15:31:57;;;;;;;263.88;130.65;;;23.60;41.80;;;;;;6055849;28;84298;-67
2022/01/24 15:34:58;;;;;;;293.75;145.85;;;23.50;41.60;;;;;;6061327;28;86053;-64
2022/01/24 15:38:03;;;;;;;261.50;129.00;;;23.50;41.90;;;;;;6059455;28;85915;-65
2022/01/24 15:41:04;;;;;;;221.57;107.90;;;23.50;42.20;;;;;;6056296;28;86953;-66
2022/01/24 15:44:21;;;;;;;173.73;85.88;;;23.50;42.10;;;;;;6057966;28;85715;-65
2022/01/24 15:47:34;;;;;;;150.70;71.85;;;23.50;42.10;;;;;;6066062;28;87160;-65
2022/01/24 15:50:35;;;;;;;121.72;59.70;;;23.50;41.90;;;;;;6062984;28;84819;-64
2022/01/24 15:53:35;;;;;;;100.45;48.70;;;23.50;42.00;;;;;;6058397;28;83030;-64
2022/01/24 15:59:36;;;;;;;76.15;38.30;;;23.50;42.10;;;;;;6060698;28;84839;-64
2022/01/24 16:02:37;;;;;;;66.55;33.95;;;23.50;42.30;;;;;;6063477;28;83918;-64
2022/01/24 16:05:37;;;;;;;58.05;28.85;;;23.50;42.40;;;;;;6049441;28;83128;-64
2022/01/24 16:08:38;;;;;;;48.70;27.23;;;23.50;42.70;;;;;;6062821;28;84235;-64
2022/01/24 16:11:38;;;;;;;44.72;24.13;;;23.40;42.80;;;;;;6065201;28;84378;-64
2022/01/24 16:14:39;;;;;;;46.50;24.20;;;23.50;42.70;;;;;;6063663;28;83054;-63
2022/01/24 16:17:39;;;;;;;39.40;18.85;;;23.40;42.00;;;;;;6049226;28;82877;-63
2022/01/24 16:25:18;;;;;;;31.45;17.20;;;23.50;42.10;;;;;;6064807;28;84426;-64
2022/01/24 16:27:10;;;;;;;35.70;17.17;;;23.50;41.90;;;;;;6063181;28;83100;-64
2022/01/24 16:30:11;;;;;;;31.98;15.75;;;23.60;41.70;;;;;;6054128;28;83420;-64
2022/01/24 16:33:11;;;;;;;27.75;14.40;;;23.60;41.60;;;;;;6058686;28;83069;-63
2022/01/24 16:36:12;;;;;;;29.85;15.50;;;23.60;41.20;;;;;;6062386;28;82912;-63
2022/01/24 16:39:17;;;;;;;29.33;13.85;;;23.60;41.10;;;;;;6061896;28;84470;-63
2022/01/24 16:42:17;;;;;;;31.17;14.57;;;23.60;40.50;;;;;;6060920;28;83152;-63
2022/01/24 16:48:45;;;;;;;25.67;13.88;;;23.70;40.20;;;;;;6038864;28;84056;-64
2022/01/24 16:51:47;;;;;;;24.25;13.70;;;23.70;40.40;;;;;;6062045;28;83039;-64
2022/01/24 16:54:49;;;;;;;32.72;14.93;;;23.70;40.40;;;;;;6053760;28;83073;-64
2022/01/24 16:57:53;;;;;;;34.33;17.25;;;23.70;40.20;;;;;;6056587;28;90465;-66
2022/01/24 17:00:53;;;;;;;34.60;18.15;;;23.70;40.00;;;;;;6057681;28;85083;-64
2022/01/24 17:03:54;;;;;;;38.00;19.50;;;23.70;40.20;;;;;;6054152;28;85676;-64
2022/01/24 17:06:57;;;;;;;37.60;19.30;;;23.80;40.70;;;;;;6058288;28;84217;-66
2022/01/24 17:09:57;;;;;;;39.63;19.20;;;23.80;41.00;;;;;;6058561;28;85651;-65
2022/01/24 17:13:02;;;;;;;37.55;20.25;;;23.80;40.50;;;;;;6056422;28;83528;-66
2022/01/24 17:16:04;;;;;;;46.28;22.77;;;23.90;40.10;;;;;;6059996;28;83402;-65
2022/01/24 17:19:04;;;;;;;50.42;26.27;;;23.90;39.40;;;;;;6058290;28;83354;-65
2022/01/24 17:22:06;;;;;;;55.45;26.45;;;24.00;38.70;;;;;;6060491;28;83417;-65
2022/01/24 17:25:07;;;;;;;49.40;27.17;;;23.90;38.00;;;;;;6060384;28;84703;-65
2022/01/24 17:28:07;;;;;;;61.28;28.95;;;23.90;37.40;;;;;;6060540;28;84407;-64
2022/01/24 17:31:08;;;;;;;49.40;28.02;;;23.90;36.80;;;;;;6063421;28;83458;-64
2022/01/24 17:34:08;;;;;;;51.38;29.17;;;23.90;36.30;;;;;;6060670;28;83297;-63
2022/01/24 17:40:13;;;;;;;51.63;27.80;;;23.80;35.70;;;;;;6052453;28;83158;-61
2022/01/24 17:43:14;;;;;;;49.03;26.40;;;23.80;35.70;;;;;;6060225;28;83984;-61
2022/01/24 17:46:14;;;;;;;46.42;24.75;;;23.90;35.20;;;;;;6057925;28;83372;-62
2022/01/24 17:49:15;;;;;;;49.80;26.67;;;23.90;35.10;;;;;;6060141;28;83865;-61
2022/01/24 17:52:16;;;;;;;49.83;26.88;;;23.90;35.30;;;;;;6047566;28;83981;-66
2022/01/24 17:55:16;;;;;;;47.08;25.67;;;23.90;35.00;;;;;;6059588;28;84851;-63
2022/01/24 17:58:17;;;;;;;47.22;25.60;;;23.90;35.00;;;;;;6061059;28;84274;-63
2022/01/24 18:01:17;;;;;;;42.78;26.77;;;23.80;34.90;;;;;;6060445;28;83116;-63
2022/01/24 18:04:18;;;;;;;47.58;23.80;;;23.80;34.70;;;;;;6053622;28;84029;-61
2022/01/24 18:07:19;;;;;;;38.92;24.77;;;23.80;34.80;;;;;;6054043;28;84690;-62
2022/01/24 18:10:19;;;;;;;43.38;25.05;;;23.70;34.50;;;;;;6054264;28;84109;-62
2022/01/24 18:13:20;;;;;;;46.90;26.10;;;23.80;35.00;;;;;;6053334;28;84311;-62
2022/01/24 18:16:20;;;;;;;40.95;23.83;;;23.80;34.40;;;;;;6060532;28;83235;-62
2022/01/24 18:19:21;;;;;;;43.97;25.25;;;23.70;34.80;;;;;;6060633;28;82996;-61
2022/01/24 18:22:21;;;;;;;40.22;25.00;;;23.70;34.50;;;;;;6056714;28;83121;-61
2022/01/24 18:25:22;;;;;;;44.97;24.90;;;23.70;34.50;;;;;;6051911;28;83115;-61
2022/01/24 18:28:22;;;;;;;48.08;27.42;;;23.60;34.30;;;;;;6059419;28;83065;-61
2022/01/24 18:31:23;;;;;;;43.17;25.90;;;23.60;33.90;;;;;;6056544;28;84676;-61
2022/01/24 18:34:24;;;;;;;49.35;26.58;;;23.60;33.80;;;;;;6053252;28;83198;-62
2022/01/24 18:37:24;;;;;;;42.65;24.55;;;23.60;34.30;;;;;;6058539;28;83308;-62
2022/01/24 18:40:25;;;;;;;44.25;25.50;;;23.60;34.60;;;;;;6063880;28;83634;-60
2022/01/24 18:43:28;;;;;;;44.45;25.10;;;23.60;34.70;;;;;;6058650;28;83190;-61
2022/01/24 18:46:28;;;;;;;44.03;24.58;;;23.60;35.20;;;;;;6058090;28;83469;-62
2022/01/24 18:49:29;;;;;;;52.72;24.20;;;23.60;34.90;;;;;;6059486;28;83441;-61
2022/01/24 18:52:29;;;;;;;46.75;25.10;;;23.60;34.80;;;;;;6059166;28;83322;-60
2022/01/24 18:55:30;;;;;;;43.90;25.90;;;23.60;35.00;;;;;;6068342;28;83904;-61
2022/01/24 18:58:30;;;;;;;40.80;24.48;;;23.60;35.60;;;;;;6056731;28;83491;-60
2022/01/24 19:01:31;;;;;;;43.72;24.83;;;23.60;34.70;;;;;;6057005;28;83940;-60
2022/01/24 19:04:32;;;;;;;43.67;24.77;;;23.60;34.80;;;;;;6058017;28;82730;-61
2022/01/24 19:07:32;;;;;;;51.95;26.13;;;23.60;34.70;;;;;;6059680;28;83444;-61
2022/01/24 19:10:33;;;;;;;41.65;24.75;;;23.60;34.70;;;;;;6058492;28;83119;-63
2022/01/24 19:13:33;;;;;;;43.40;25.70;;;23.50;34.40;;;;;;6056421;28;85802;-64
2022/01/24 19:16:34;;;;;;;45.70;26.98;;;23.50;33.90;;;;;;6053289;28;83370;-68
2022/01/24 19:19:48;;;;;;;47.28;26.80;;;23.40;33.60;;;;;;6052829;28;83157;-65
2022/01/24 19:26:08;;;;;;;47.33;26.13;;;23.40;33.30;;;;;;6058373;28;83043;-67
2022/01/24 19:29:09;;;;;;;48.13;27.70;;;23.30;33.10;;;;;;6053781;28;84288;-66
2022/01/24 19:32:09;;;;;;;51.38;28.73;;;23.20;33.10;;;;;;6058435;28;84194;-66
2022/01/24 19:35:10;;;;;;;42.53;26.17;;;23.20;33.20;;;;;;6060471;28;83287;-66
2022/01/24 19:38:10;;;;;;;48.08;27.27;;;23.30;33.30;;;;;;6061659;28;83063;-68
2022/01/24 19:41:11;;;;;;;43.85;26.45;;;23.30;33.30;;;;;;6073628;28;84431;-66
2022/01/24 19:44:11;;;;;;;47.05;27.77;;;23.30;33.30;;;;;;6055733;28;85953;-67
2022/01/24 19:47:12;;;;;;;44.95;25.35;;;23.20;33.10;;;;;;6061933;28;83576;-68
2022/01/24 19:50:13;;;;;;;49.90;28.50;;;23.20;33.00;;;;;;6060997;28;84752;-67
2022/01/24 19:53:13;;;;;;;48.42;28.08;;;23.20;33.00;;;;;;6055746;28;82995;-67
2022/01/24 19:56:40;;;;;;;48.42;27.35;;;23.20;32.90;;;;;;6062410;28;82874;-68
2022/01/24 19:59:47;;;;;;;48.25;28.83;;;23.20;33.20;;;;;;6064991;28;83063;-67